Time;durP1;ratioP1;P1;durP2;ratioP2;P2;SDS_P1;SDS_P2;PMS_P1;PMS_P2;Temp;Humidity;BMP_temperature;BMP_pressure;BME280_temperature;BME280_humidity;BME280_pressure;Samples;Min_cycle;Max_cycle;Signal;HPM_P1;HPM_P2
2023/07/07 00:00:00;;;;;;;13.00;8.32;;;;;;;20.29;95.33;94839.88;5100523;28;20224;-78
2023/07/07 00:02:25;;;;;;;14.60;9.07;;;;;;;20.32;95.63;94840.13;5111267;28;20251;-78
2023/07/07 00:04:51;;;;;;;12.80;8.75;;;;;;;20.03;95.63;94798.22;5107144;28;20170;-78
2023/07/07 00:07:17;;;;;;;14.30;8.77;;;;;;;20.15;96.34;94836.19;5101861;28;20268;-78
2023/07/07 00:09:42;;;;;;;14.07;8.82;;;;;;;20.09;96.18;94827.34;5100381;28;20166;-78
2023/07/07 00:12:08;;;;;;;13.20;8.73;;;;;;;20.21;96.39;94848.44;5109464;28;20173;-78
2023/07/07 00:14:33;;;;;;;17.75;9.20;;;;;;;20.07;96.88;94832.16;5102272;28;20200;-78
2023/07/07 00:17:01;;;;;;;13.48;8.93;;;;;;;20.06;96.91;94825.22;5101365;28;20162;-78
2023/07/07 00:19:36;;;;;;;13.00;8.15;;;;;;;20.19;96.68;94843.38;5110449;28;20184;-78
2023/07/07 00:22:05;;;;;;;12.55;8.43;;;;;;;20.20;96.75;94836.16;5102923;28;20203;-78
2023/07/07 00:24:32;;;;;;;19.75;8.63;;;;;;;20.21;97.14;94846.56;5102496;28;20233;-77
2023/07/07 00:26:57;;;;;;;13.00;8.80;;;;;;;20.23;96.57;94839.09;5100147;28;20539;-78
2023/07/07 00:29:23;;;;;;;12.65;7.88;;;;;;;20.25;96.74;94844.16;5101252;28;20196;-78
2023/07/07 00:31:48;;;;;;;16.35;8.68;;;;;;;20.21;96.82;94843.91;5101401;28;20172;-78
2023/07/07 00:34:14;;;;;;;15.23;8.63;;;;;;;20.26;96.28;94851.91;5106615;28;20630;-77
2023/07/07 00:36:39;;;;;;;14.85;7.75;;;;;;;20.17;96.50;94832.13;5101309;28;20172;-78
2023/07/07 00:39:04;;;;;;;14.82;8.68;;;;;;;19.92;96.33;94792.09;5101642;28;20183;-78
2023/07/07 00:41:30;;;;;;;13.57;7.85;;;;;;;20.13;96.61;94825.75;5105866;28;20596;-78
2023/07/07 00:44:11;;;;;;;12.65;7.88;;;;;;;20.15;96.83;94844.19;5108255;28;20218;-78
2023/07/07 00:46:38;;;;;;;14.63;7.65;;;;;;;20.22;96.76;94852.72;5106769;28;20253;-78
2023/07/07 00:49:17;;;;;;;13.18;7.97;;;;;;;20.23;96.46;94844.44;5104017;28;20206;-78
2023/07/07 00:52:02;;;;;;;11.50;8.57;;;;;;;20.14;96.54;94839.91;5102705;28;20675;-78
2023/07/07 00:54:31;;;;;;;14.75;8.85;;;;;;;20.16;96.58;94837.75;5109730;28;20173;-77
2023/07/07 00:56:56;;;;;;;16.10;8.32;;;;;;;19.95;96.35;94813.75;5105226;28;20665;-78
2023/07/07 00:59:26;;;;;;;15.70;8.02;;;;;;;20.23;96.54;94854.34;5103919;28;20229;-78
2023/07/07 01:01:55;;;;;;;14.00;7.95;;;;;;;20.24;96.27;94856.72;5103906;28;20209;-78
2023/07/07 01:04:22;;;;;;;11.30;7.55;;;;;;;20.09;96.27;94843.38;5092644;28;20181;-78
2023/07/07 01:06:53;;;;;;;14.43;8.32;;;;;;;20.12;96.52;94844.72;5108039;28;20646;-78
2023/07/07 01:09:18;;;;;;;10.68;7.65;;;;;;;20.22;96.69;94863.41;5095525;28;20699;-78
2023/07/07 01:11:46;;;;;;;9.57;7.28;;;;;;;20.20;96.70;94862.88;5099434;28;20170;-78
2023/07/07 01:14:20;;;;;;;11.18;7.55;;;;;;;20.19;96.49;94859.41;5101996;28;20658;-78
2023/07/07 01:17:13;;;;;;;12.10;7.63;;;;;;;20.20;96.17;94861.00;5103830;28;20238;-78
2023/07/07 01:20:09;;;;;;;11.65;7.43;;;;;;;20.19;96.29;94855.94;5098152;28;20177;-78
2023/07/07 01:22:40;;;;;;;11.57;8.05;;;;;;;20.18;96.34;94854.31;5092657;28;20181;-78
2023/07/07 01:25:23;;;;;;;14.65;7.38;;;;;;;20.15;96.23;94849.53;5100588;28;20201;-78
2023/07/07 01:28:09;;;;;;;10.88;7.72;;;;;;;20.06;96.69;94843.94;5094486;28;20188;-78
2023/07/07 01:30:55;;;;;;;10.18;6.63;;;;;;;20.16;96.54;94856.47;5103120;28;20180;-78
2023/07/07 01:33:25;;;;;;;9.52;6.85;;;;;;;19.98;96.18;94839.91;5105537;28;20179;-78
2023/07/07 01:35:51;;;;;;;11.35;7.05;;;;;;;20.10;96.47;94857.56;5104927;28;20191;-78
2023/07/07 01:38:54;;;;;;;12.43;7.43;;;;;;;20.08;96.59;94870.38;5104772;28;20177;-78
2023/07/07 01:41:38;;;;;;;11.57;6.53;;;;;;;20.08;96.89;94868.50;5033621;28;21062;-78
2023/07/07 01:44:21;;;;;;;13.10;7.22;;;;;;;20.08;96.45;94862.34;5033553;28;20180;-78
2023/07/07 01:46:54;;;;;;;12.85;6.70;;;;;;;19.93;96.51;94842.63;5085884;28;20718;-78
2023/07/07 01:49:32;;;;;;;8.65;6.55;;;;;;;19.92;97.21;94854.38;5104221;28;20182;-78
2023/07/07 01:52:11;;;;;;;11.82;6.20;;;;;;;19.87;97.22;94832.22;5096351;28;20184;-78
2023/07/07 01:54:41;;;;;;;10.10;6.57;;;;;;;19.89;96.86;94843.44;5104466;28;20176;-78
2023/07/07 01:57:08;;;;;;;10.82;7.78;;;;;;;19.94;97.56;94857.56;5099734;28;20422;-78
2023/07/07 01:59:34;;;;;;;14.40;6.97;;;;;;;19.98;97.49;94855.94;5113028;28;20221;-78
2023/07/07 02:02:00;;;;;;;11.65;7.07;;;;;;;20.02;96.74;94856.22;5104432;28;20269;-78
2023/07/07 02:04:26;;;;;;;9.60;6.78;;;;;;;20.06;96.54;94854.63;5103879;28;20177;-78
2023/07/07 02:06:51;;;;;;;10.23;7.10;;;;;;;20.07;96.62;94858.09;5105501;28;20579;-78
2023/07/07 02:09:19;;;;;;;8.90;6.35;;;;;;;20.09;97.22;94855.94;5110917;28;20560;-78
2023/07/07 02:11:45;;;;;;;7.32;6.60;;;;;;;20.08;96.44;94852.47;5103759;28;20170;-78
2023/07/07 02:14:10;;;;;;;10.63;7.13;;;;;;;20.10;96.92;94861.03;5106340;28;20171;-78
2023/07/07 02:16:35;;;;;;;9.60;7.72;;;;;;;20.06;96.94;94851.16;5103801;28;20207;-78
2023/07/07 02:19:02;;;;;;;14.45;7.40;;;;;;;20.06;96.67;94843.94;5104983;28;20198;-78
2023/07/07 02:21:28;;;;;;;12.32;7.75;;;;;;;20.10;96.13;94854.88;5106817;28;20701;-78
2023/07/07 02:23:53;;;;;;;11.63;8.67;;;;;;;20.06;97.42;94854.63;5097295;28;20925;-78
2023/07/07 02:26:19;;;;;;;8.95;7.13;;;;;;;20.16;96.52;94856.47;5111124;28;20231;-78
2023/07/07 02:28:46;;;;;;;12.32;8.30;;;;;;;20.18;95.86;94857.00;5108865;28;20625;-78
2023/07/07 02:31:12;;;;;;;11.07;8.75;;;;;;;20.27;95.85;94860.72;5105250;28;20169;-78
2023/07/07 02:33:38;;;;;;;11.30;7.88;;;;;;;20.07;96.07;94837.50;5105656;28;20176;-78
2023/07/07 02:36:06;;;;;;;12.60;10.60;;;;;;;19.85;97.78;94864.53;5114305;28;21215;-78
2023/07/07 02:38:33;;;;;;;12.80;10.48;;;;;;;19.60;99.59;94856.53;5085341;28;20430;-78
2023/07/07 02:40:58;;;;;;;13.55;9.93;;;;;;;19.68;100.00;94860.53;5103291;28;20181;-78
2023/07/07 02:43:24;;;;;;;12.93;9.10;;;;;;;19.77;100.00;94862.41;5111576;28;20180;-78
2023/07/07 02:45:51;;;;;;;13.68;9.95;;;;;;;19.79;99.75;94830.06;5102240;28;20169;-78
2023/07/07 02:48:18;;;;;;;12.18;9.48;;;;;;;19.96;98.80;94833.25;5103179;28;20177;-78
2023/07/07 02:50:52;;;;;;;13.10;8.68;;;;;;;20.03;98.04;94836.44;5102214;28;20170;-78
2023/07/07 02:53:18;;;;;;;13.55;9.07;;;;;;;20.10;97.68;94841.50;5103220;28;20172;-78
2023/07/07 02:55:45;;;;;;;12.60;9.48;;;;;;;20.06;97.34;94835.94;5101476;28;20174;-78
2023/07/07 02:58:11;;;;;;;14.20;9.27;;;;;;;20.07;96.89;94842.03;5094377;28;20158;-78
2023/07/07 03:00:37;;;;;;;15.10;9.95;;;;;;;20.15;97.42;94865.56;5104455;28;20252;-77
2023/07/07 03:03:02;;;;;;;13.32;8.80;;;;;;;20.08;97.90;94870.38;5103420;28;20670;-78
2023/07/07 03:05:27;;;;;;;16.85;9.57;;;;;;;20.04;97.63;94863.97;5103015;28;20181;-78
2023/07/07 03:07:53;;;;;;;14.63;10.05;;;;;;;19.96;98.05;94866.13;5105955;28;20185;-78
2023/07/07 03:10:18;;;;;;;12.30;9.32;;;;;;;19.92;98.41;94878.41;5105002;28;20177;-78
2023/07/07 03:12:44;;;;;;;14.93;10.25;;;;;;;19.74;98.87;94852.25;5102439;28;20199;-78
2023/07/07 03:15:09;;;;;;;19.67;10.48;;;;;;;19.94;98.92;94878.16;5104832;28;20203;-78
2023/07/07 03:17:35;;;;;;;13.80;10.07;;;;;;;19.96;99.02;94868.00;5104073;28;20185;-78
2023/07/07 03:20:00;;;;;;;13.70;10.75;;;;;;;19.89;99.69;94865.56;5101472;28;20197;-78
2023/07/07 03:22:26;;;;;;;16.15;11.02;;;;;;;19.89;99.54;94876.28;5112656;27;20174;-78
2023/07/07 03:24:51;;;;;;;16.65;11.57;;;;;;;19.90;99.83;94877.06;5100420;28;20201;-78
2023/07/07 03:27:17;;;;;;;15.73;11.68;;;;;;;19.75;100.00;94867.19;5106238;28;20264;-78
2023/07/07 03:29:42;;;;;;;14.27;11.45;;;;;;;19.86;100.00;94868.81;5103195;28;20169;-78
2023/07/07 03:32:08;;;;;;;14.70;11.55;;;;;;;19.98;99.42;94876.53;5109331;28;20170;-78
2023/07/07 03:34:36;;;;;;;15.45;11.40;;;;;;;20.17;99.33;94874.09;5102316;28;20539;-79
2023/07/07 03:37:02;;;;;;;15.23;11.48;;;;;;;20.11;99.02;94859.97;5108067;28;20650;-77
2023/07/07 03:39:27;;;;;;;20.90;12.13;;;;;;;20.40;98.56;94868.22;5103896;28;20173;-77
2023/07/07 03:41:53;;;;;;;16.50;10.65;;;;;;;20.57;98.57;94870.59;5100081;28;20242;-78
2023/07/07 03:44:18;;;;;;;16.33;11.38;;;;;;;20.65;98.40;94870.03;5104618;28;20177;-77
2023/07/07 03:46:43;;;;;;;15.85;11.75;;;;;;;20.71;96.81;94871.59;5104568;28;20549;-77
2023/07/07 03:49:09;;;;;;;16.70;11.73;;;;;;;20.67;96.10;94855.28;5111060;28;20181;-77
2023/07/07 03:51:36;;;;;;;17.95;12.32;;;;;;;20.98;96.38;94879.25;5101792;28;20165;-77
2023/07/07 03:54:03;;;;;;;17.23;12.70;;;;;;;21.17;96.48;94879.44;5101798;28;20165;-77
2023/07/07 03:56:28;;;;;;;19.65;12.20;;;;;;;21.33;95.67;94881.75;5095176;28;20177;-77
2023/07/07 03:58:54;;;;;;;18.33;11.85;;;;;;;21.35;94.44;94866.22;5105195;28;20181;-77
2023/07/07 04:01:19;;;;;;;18.02;12.32;;;;;;;21.58;94.87;94869.28;5099590;28;20269;-77
2023/07/07 04:03:48;;;;;;;19.05;13.10;;;;;;;21.79;93.78;94876.09;5103819;28;20212;-76
2023/07/07 04:06:17;;;;;;;18.48;12.38;;;;;;;21.93;91.79;94895.81;5108465;28;20177;-77
2023/07/07 04:08:43;;;;;;;20.58;12.18;;;;;;;22.05;92.01;94895.50;5100573;27;20328;-78
2023/07/07 04:11:18;;;;;;;14.05;11.38;;;;;;;22.04;90.63;94900.06;5103400;28;20726;-77
2023/07/07 04:13:45;;;;;;;17.67;12.57;;;;;;;22.04;91.09;94902.72;5102212;28;20160;-77
2023/07/07 04:16:12;;;;;;;19.20;11.63;;;;;;;22.14;92.16;94904.53;5104838;28;20916;-77
2023/07/07 04:18:38;;;;;;;16.55;12.20;;;;;;;22.07;90.59;94894.09;5101696;28;20844;-77
2023/07/07 04:21:08;;;;;;;17.23;13.32;;;;;;;22.21;91.90;94888.91;5098051;28;21006;-76
2023/07/07 04:23:35;;;;;;;16.67;12.65;;;;;;;22.48;91.19;94894.53;5102008;28;20556;-77
2023/07/07 04:26:01;;;;;;;20.13;13.52;;;;;;;22.59;90.27;94865.69;5103208;28;20170;-77
2023/07/07 04:28:26;;;;;;;18.90;12.73;;;;;;;23.03;89.00;94891.53;5101594;28;20166;-77
2023/07/07 04:30:55;;;;;;;16.98;13.48;;;;;;;23.14;87.93;94890.31;5109326;28;20173;-78
2023/07/07 04:33:22;;;;;;;18.38;12.95;;;;;;;23.16;87.07;94886.25;5099788;28;20212;-78
2023/07/07 04:35:55;;;;;;;17.45;12.23;;;;;;;23.42;86.96;94894.78;5100710;28;20166;-78
2023/07/07 04:38:30;;;;;;;19.23;12.38;;;;;;;23.44;85.49;94907.94;5092445;28;20178;-78
2023/07/07 04:41:18;;;;;;;15.07;11.63;;;;;;;23.61;85.63;94903.66;5100138;28;20751;-78
2023/07/07 04:43:47;;;;;;;15.63;11.63;;;;;;;23.95;85.45;94913.38;5094431;28;20238;-78
2023/07/07 04:46:15;;;;;;;17.50;12.35;;;;;;;24.19;84.18;94911.38;5108808;28;20241;-78
2023/07/07 04:48:41;;;;;;;16.92;11.63;;;;;;;24.32;83.14;94918.69;5100081;28;20783;-78
2023/07/07 04:51:10;;;;;;;16.00;12.32;;;;;;;24.34;81.97;94921.09;5098770;28;20748;-77
2023/07/07 04:53:37;;;;;;;17.63;11.90;;;;;;;24.41;83.14;94925.00;5103578;28;20200;-78
2023/07/07 04:56:15;;;;;;;17.23;12.05;;;;;;;24.42;82.49;94923.91;5096421;28;20250;-78
2023/07/07 04:58:41;;;;;;;14.52;12.45;;;;;;;24.47;81.70;94933.00;5091841;28;20536;-77
2023/07/07 05:01:09;;;;;;;18.05;11.55;;;;;;;24.52;82.00;94933.69;5100040;28;20217;-78
2023/07/07 05:03:36;;;;;;;14.68;11.88;;;;;;;24.77;82.09;94925.16;5102989;28;20678;-78
2023/07/07 05:06:03;;;;;;;15.90;11.48;;;;;;;24.75;80.17;94926.53;5106100;28;20170;-78
2023/07/07 05:08:34;;;;;;;14.45;11.85;;;;;;;24.76;80.41;94936.22;5098811;28;20173;-78
2023/07/07 05:11:00;;;;;;;13.75;10.85;;;;;;;24.68;80.48;94932.34;5100758;28;20170;-78
2023/07/07 05:13:26;;;;;;;15.00;11.57;;;;;;;24.45;80.90;94911.75;5100575;28;20181;-79
2023/07/07 05:16:12;;;;;;;18.40;12.75;;;;;;;24.38;82.07;94922.13;5103889;28;20298;-79
2023/07/07 05:18:38;;;;;;;16.35;11.38;;;;;;;24.33;82.07;94930.25;5093884;28;20181;-78
2023/07/07 05:21:04;;;;;;;19.23;13.55;;;;;;;24.21;82.31;94919.19;5100347;28;20221;-79
2023/07/07 05:23:30;;;;;;;18.88;12.77;;;;;;;24.11;82.99;94917.41;5108607;28;20201;-78
2023/07/07 05:25:55;;;;;;;13.90;11.43;;;;;;;24.06;83.57;94915.59;5100203;28;20588;-78
2023/07/07 05:28:21;;;;;;;13.82;11.40;;;;;;;24.21;82.60;94928.06;5100233;28;20706;-78
2023/07/07 05:30:47;;;;;;;14.80;11.63;;;;;;;24.41;83.43;94929.59;5101623;28;20157;-78
2023/07/07 05:33:13;;;;;;;18.02;12.38;;;;;;;24.76;82.77;94934.34;5103386;28;20176;-78
2023/07/07 05:35:56;;;;;;;16.40;11.85;;;;;;;24.99;81.27;94916.44;5103487;28;20191;-78
2023/07/07 05:38:24;;;;;;;13.00;11.18;;;;;;;25.46;79.97;94933.25;5093684;28;20303;-77
2023/07/07 05:40:50;;;;;;;15.60;11.68;;;;;;;25.77;77.50;94941.50;5099896;28;20194;-78
2023/07/07 05:43:17;;;;;;;16.60;11.15;;;;;;;25.76;76.54;94937.22;5103912;28;20260;-77
2023/07/07 05:45:43;;;;;;;17.08;11.35;;;;;;;25.72;75.33;94942.41;5104128;28;20723;-77
2023/07/07 05:48:09;;;;;;;17.75;11.48;;;;;;;25.83;75.49;94948.38;5102224;28;20264;-77
2023/07/07 05:50:35;;;;;;;16.15;11.60;;;;;;;25.90;75.94;94954.16;5103398;28;20219;-77
2023/07/07 05:53:03;;;;;;;15.82;12.23;;;;;;;25.74;75.52;94958.28;5109165;28;20173;-77
2023/07/07 05:55:32;;;;;;;17.65;12.02;;;;;;;25.60;76.66;94952.91;5102982;28;20184;-77
2023/07/07 05:57:58;;;;;;;17.52;12.93;;;;;;;25.36;76.84;94957.72;5103317;28;20173;-77
2023/07/07 06:00:25;;;;;;;20.10;12.45;;;;;;;25.10;77.41;94958.22;5099443;28;20643;-78
2023/07/07 06:02:51;;;;;;;16.83;12.45;;;;;;;24.94;78.80;94951.53;5100368;28;20177;-78
2023/07/07 06:05:17;;;;;;;16.38;11.73;;;;;;;24.81;78.91;94950.41;5101436;28;20178;-78
2023/07/07 06:07:42;;;;;;;17.52;13.35;;;;;;;24.84;79.32;94965.16;5091675;28;20265;-76
2023/07/07 06:10:10;;;;;;;20.33;12.45;;;;;;;24.83;79.75;94956.28;5099249;28;20700;-77
2023/07/07 06:12:36;;;;;;;19.25;12.75;;;;;;;24.80;79.16;94954.19;5086266;28;20173;-77
2023/07/07 06:15:03;;;;;;;17.48;12.35;;;;;;;24.61;79.67;94923.84;5104891;28;20196;-76
2023/07/07 06:17:29;;;;;;;13.75;11.57;;;;;;;24.74;78.71;94946.50;5099463;28;20181;-76
2023/07/07 06:19:55;;;;;;;18.20;12.07;;;;;;;24.89;79.25;94964.28;5103110;28;20661;-77
2023/07/07 06:22:20;;;;;;;17.35;11.63;;;;;;;24.81;78.97;94945.03;5103212;28;20177;-79
2023/07/07 06:24:46;;;;;;;14.32;10.95;;;;;;;24.73;78.94;94934.16;5106928;28;20244;-79
2023/07/07 06:27:11;;;;;;;17.75;12.00;;;;;;;24.79;78.84;94939.13;5106793;28;20173;-79
2023/07/07 06:29:37;;;;;;;18.80;10.98;;;;;;;24.98;77.08;94938.28;5106507;28;20621;-80
2023/07/07 06:32:02;;;;;;;15.30;11.90;;;;;;;25.17;77.25;94944.34;5106620;28;20229;-80
2023/07/07 06:34:28;;;;;;;14.70;11.27;;;;;;;25.47;75.50;94973.41;5097877;28;20231;-80
2023/07/07 06:36:53;;;;;;;20.05;12.15;;;;;;;25.30;76.28;94931.97;5105828;28;20560;-79
2023/07/07 06:39:19;;;;;;;16.08;10.43;;;;;;;25.58;75.34;94970.50;5114942;28;20221;-80
2023/07/07 06:41:44;;;;;;;13.48;11.68;;;;;;;25.58;75.29;94975.88;5113859;28;20200;-80
2023/07/07 06:44:10;;;;;;;15.23;11.30;;;;;;;25.71;76.13;94972.38;5106565;28;20166;-79
2023/07/07 06:46:35;;;;;;;13.90;10.57;;;;;;;25.99;76.50;94940.72;5094388;28;20216;-82
2023/07/07 06:49:02;;;;;;;13.25;10.75;;;;;;;26.65;75.08;94938.03;5094479;28;20165;-83
2023/07/07 06:51:28;;;;;;;17.35;10.55;;;;;;;27.36;69.79;94986.69;5093052;28;20199;-81
2023/07/07 06:53:54;;;;;;;18.60;13.63;;;;;;;27.26;69.56;94949.91;5094921;28;20166;-84
2023/07/07 06:56:19;;;;;;;22.13;16.38;;;;;;;27.45;69.91;94987.53;5094043;28;20299;-79
2023/07/07 06:58:44;;;;;;;14.98;10.85;;;;;;;27.39;69.21;94988.78;5094274;28;20542;-86
2023/07/07 07:01:11;;;;;;;13.65;10.10;;;;;;;27.40;70.26;94993.88;5093994;28;20390;-80
2023/07/07 07:03:38;;;;;;;14.75;10.15;;;;;;;27.31;69.29;94989.56;5094366;28;20799;-87
2023/07/07 07:06:04;;;;;;;17.08;10.45;;;;;;;27.06;67.13;94992.94;5098243;28;20174;-81
2023/07/07 07:08:29;;;;;;;19.63;11.57;;;;;;;26.73;69.58;95003.22;5105830;28;20192;-80
2023/07/07 07:10:55;;;;;;;13.38;9.60;;;;;;;26.24;71.31;94956.31;5106356;28;20173;-80
2023/07/07 07:13:20;;;;;;;15.07;12.07;;;;;;;26.24;71.09;94977.91;5102784;28;20170;-79
2023/07/07 07:15:45;;;;;;;15.98;10.88;;;;;;;26.41;72.59;94998.88;5102301;28;20170;-81
2023/07/07 07:18:14;;;;;;;16.48;11.85;;;;;;;26.16;73.00;94973.25;5103512;28;20237;-81
2023/07/07 07:20:40;;;;;;;16.20;12.43;;;;;;;26.19;71.60;94996.94;5103286;28;20194;-80
2023/07/07 07:23:06;;;;;;;14.30;10.35;;;;;;;26.11;71.16;95001.19;5102499;28;20212;-79
2023/07/07 07:25:31;;;;;;;13.25;10.65;;;;;;;25.96;71.34;95006.09;5107246;28;20169;-79
2023/07/07 07:27:56;;;;;;;15.93;11.57;;;;;;;25.92;74.25;95006.72;5102915;28;20218;-82
2023/07/07 07:30:22;;;;;;;17.70;10.50;;;;;;;25.75;72.74;95006.56;5104863;28;20257;-81
2023/07/07 07:32:48;;;;;;;15.27;11.13;;;;;;;25.51;73.76;95008.66;5099170;28;20622;-81
2023/07/07 07:35:13;;;;;;;14.63;11.05;;;;;;;25.43;74.71;94996.66;5101936;28;20702;-81
2023/07/07 07:37:40;;;;;;;18.00;11.90;;;;;;;25.49;74.62;95010.84;5104992;28;20642;-79
2023/07/07 07:40:06;;;;;;;18.90;12.55;;;;;;;25.55;76.07;94991.56;5098712;28;20612;-81
2023/07/07 07:42:31;;;;;;;15.55;11.63;;;;;;;25.80;75.06;95005.63;5097536;28;20243;-81
2023/07/07 07:44:57;;;;;;;22.17;15.15;;;;;;;25.98;74.21;95015.50;5089965;28;20655;-83
2023/07/07 07:47:22;;;;;;;17.83;12.77;;;;;;;25.86;74.57;94994.41;5101573;28;20170;-81
2023/07/07 07:49:48;;;;;;;14.95;11.15;;;;;;;26.21;74.63;95016.31;5090008;28;20191;-81
2023/07/07 07:52:14;;;;;;;16.30;11.85;;;;;;;26.31;74.07;94999.91;5104385;28;20635;-81
2023/07/07 07:54:40;;;;;;;16.42;11.27;;;;;;;26.71;73.36;95022.47;5100482;28;20169;-81
2023/07/07 07:57:06;;;;;;;16.60;11.68;;;;;;;27.22;72.22;95013.84;5097272;28;20607;-81
2023/07/07 07:59:31;;;;;;;15.82;10.38;;;;;;;27.86;71.82;95013.44;5089548;28;20601;-81
2023/07/07 08:01:57;;;;;;;13.95;9.48;;;;;;;28.44;67.69;95027.38;5089541;28;20228;-81
2023/07/07 08:04:23;;;;;;;13.80;9.75;;;;;;;28.90;65.66;95026.69;5091017;28;20322;-81
2023/07/07 08:06:51;;;;;;;13.40;9.23;;;;;;;28.85;63.50;94998.97;5108982;28;20646;-81
2023/07/07 08:09:17;;;;;;;14.27;9.38;;;;;;;29.19;63.06;95020.56;5104668;28;20166;-81
2023/07/07 08:11:42;;;;;;;12.05;9.25;;;;;;;29.25;61.82;95023.91;5103659;28;20239;-81
2023/07/07 08:14:19;;;;;;;11.07;8.75;;;;;;;29.36;61.95;95018.94;5106720;28;20635;-81
2023/07/07 08:16:50;;;;;;;15.02;9.82;;;;;;;29.29;63.75;95014.00;5089704;28;20225;-82
2023/07/07 08:19:15;;;;;;;13.10;8.63;;;;;;;29.47;64.37;95023.69;5089505;28;20201;-81
2023/07/07 08:21:40;;;;;;;17.20;9.63;;;;;;;29.23;62.56;95001.75;5089420;28;20225;-90
2023/07/07 08:24:06;;;;;;;19.52;9.35;;;;;;;29.16;63.40;95023.13;5100228;28;20169;-80
2023/07/07 08:26:33;;;;;;;12.63;9.20;;;;;;;28.81;65.44;95027.84;5108444;28;20608;-80
2023/07/07 08:28:59;;;;;;;12.18;8.85;;;;;;;28.43;65.54;95019.56;5110923;28;20302;-80
2023/07/07 08:31:25;;;;;;;13.00;9.13;;;;;;;28.35;66.71;95010.34;5105010;28;20188;-80
2023/07/07 08:33:50;;;;;;;10.02;8.18;;;;;;;28.66;67.82;95003.91;5098253;28;20563;-80
2023/07/07 08:36:16;;;;;;;12.02;9.30;;;;;;;29.04;65.79;95021.09;5100224;28;20181;-79
2023/07/07 08:38:42;;;;;;;10.70;8.50;;;;;;;29.44;67.44;95021.63;5091751;28;20196;-80
2023/07/07 08:41:07;;;;;;;12.73;9.43;;;;;;;29.53;62.71;95008.81;5098851;28;20185;-80
2023/07/07 08:43:33;;;;;;;14.63;8.80;;;;;;;29.76;63.97;95017.47;5095279;28;20170;-79
2023/07/07 08:46:25;;;;;;;18.95;9.45;;;;;;;30.22;62.91;95019.28;5095558;28;20192;-80
2023/07/07 08:49:02;;;;;;;14.00;9.27;;;;;;;30.35;61.56;95003.84;5090691;28;20169;-80
2023/07/07 08:51:37;;;;;;;12.18;8.75;;;;;;;30.27;63.19;94993.84;5103259;28;20642;-78
2023/07/07 08:54:09;;;;;;;16.13;11.15;;;;;;;30.43;62.57;95018.50;5096329;28;20216;-80
2023/07/07 08:56:45;;;;;;;13.52;8.80;;;;;;;30.12;59.99;95019.66;5096522;28;20689;-80
2023/07/07 08:59:16;;;;;;;14.48;9.07;;;;;;;30.10;60.88;95011.03;5103932;28;20669;-80
2023/07/07 09:01:59;;;;;;;15.85;9.57;;;;;;;30.16;60.00;94995.38;5100020;28;20216;-80
2023/07/07 09:04:29;;;;;;;12.52;8.93;;;;;;;30.30;62.25;95012.19;5093685;28;20647;-80
2023/07/07 09:07:19;;;;;;;17.92;8.38;;;;;;;30.42;60.31;95011.47;5097309;28;20260;-80
2023/07/07 09:10:35;;;;;;;12.38;9.65;;;;;;;30.32;58.77;94996.34;5097422;28;20168;-80
2023/07/07 09:13:12;;;;;;;14.52;8.27;;;;;;;30.44;60.57;95003.78;5059243;28;20229;-80
2023/07/07 09:15:42;;;;;;;10.18;7.85;;;;;;;30.42;59.61;94979.66;5097962;28;20169;-80
2023/07/07 09:18:26;;;;;;;13.75;9.43;;;;;;;30.67;60.76;95003.09;5097407;28;20172;-80
2023/07/07 09:20:59;;;;;;;10.85;8.57;;;;;;;30.56;60.01;94982.91;5099335;28;20201;-80
2023/07/07 09:23:39;;;;;;;10.65;7.95;;;;;;;30.61;59.30;94981.91;5099157;28;20246;-80
2023/07/07 09:26:12;;;;;;;19.05;8.65;;;;;;;30.80;58.09;94993.03;5089378;28;20173;-81
2023/07/07 09:28:45;;;;;;;13.13;8.80;;;;;;;30.46;59.45;94979.75;5108241;28;20213;-79
2023/07/07 09:31:30;;;;;;;10.75;7.85;;;;;;;30.36;56.70;94997.25;5100677;28;20217;-79
2023/07/07 09:33:59;;;;;;;11.10;8.13;;;;;;;30.39;57.35;94981.09;5106112;28;20165;-79
2023/07/07 09:36:49;;;;;;;11.63;8.48;;;;;;;30.42;57.07;94995.16;5104844;28;20252;-79
2023/07/07 09:39:39;;;;;;;14.23;8.80;;;;;;;30.60;58.29;94997.41;5098974;28;20199;-79
2023/07/07 09:42:04;;;;;;;11.80;9.23;;;;;;;30.69;58.47;94994.63;5101496;28;20196;-79
2023/07/07 09:44:56;;;;;;;10.38;9.00;;;;;;;30.67;59.58;94988.72;5096167;28;20178;-79
2023/07/07 09:47:53;;;;;;;13.57;8.32;;;;;;;30.33;55.52;94987.88;5086422;28;20157;-82
2023/07/07 09:50:32;;;;;;;11.90;7.93;;;;;;;30.17;59.69;94978.75;5092628;28;20610;-84
2023/07/07 09:53:17;;;;;;;11.20;7.90;;;;;;;30.22;59.98;94986.69;5100962;28;20665;-82
2023/07/07 09:55:43;;;;;;;12.57;8.35;;;;;;;30.15;61.97;94947.59;5103969;28;20548;-86
2023/07/07 09:58:23;;;;;;;12.70;8.32;;;;;;;30.22;57.96;94985.88;5112464;28;20223;-84
2023/07/07 10:00:53;;;;;;;12.90;8.70;;;;;;;30.09;58.70;94974.16;5108906;28;20274;-84
2023/07/07 10:03:28;;;;;;;12.80;8.32;;;;;;;30.16;59.22;94968.19;5103570;28;20220;-84
2023/07/07 10:05:57;;;;;;;11.00;8.45;;;;;;;29.95;57.93;94970.91;5103654;28;20165;-83
2023/07/07 10:08:23;;;;;;;11.50;8.55;;;;;;;29.95;62.00;94977.13;5105014;28;20669;-84
2023/07/07 10:11:08;;;;;;;15.50;8.15;;;;;;;29.99;60.85;94972.63;5102523;28;20166;-84
2023/07/07 10:13:35;;;;;;;12.05;7.80;;;;;;;29.70;60.67;94972.63;5080205;28;20196;-82
2023/07/07 10:16:05;;;;;;;9.90;7.00;;;;;;;29.42;59.30;94980.44;5098536;28;20184;-82
2023/07/07 10:18:32;;;;;;;9.10;7.55;;;;;;;29.37;58.30;94975.22;5103877;28;20645;-82
2023/07/07 10:21:02;;;;;;;9.85;7.00;;;;;;;29.39;58.19;94974.91;5104392;28;20229;-83
2023/07/07 10:23:29;;;;;;;8.23;6.75;;;;;;;29.33;56.84;94979.66;5105155;28;20177;-83
2023/07/07 10:25:54;;;;;;;12.73;7.53;;;;;;;29.25;58.02;94958.78;5105415;28;20658;-84
2023/07/07 10:28:21;;;;;;;10.43;7.28;;;;;;;29.33;60.12;94963.38;5102371;28;20256;-82
2023/07/07 10:30:48;;;;;;;9.70;7.85;;;;;;;29.51;60.57;94962.19;5106429;28;20168;-84
2023/07/07 10:33:16;;;;;;;8.32;7.10;;;;;;;29.71;59.99;94966.09;5089284;28;20174;-83
2023/07/07 10:35:43;;;;;;;8.50;7.45;;;;;;;29.60;58.12;94941.25;5105555;28;20637;-83
2023/07/07 10:38:10;;;;;;;14.02;7.50;;;;;;;29.83;58.64;94968.91;5095563;28;20258;-83
2023/07/07 10:40:36;;;;;;;11.82;8.23;;;;;;;29.99;60.80;94963.69;5103643;28;20253;-82
2023/07/07 10:43:03;;;;;;;12.15;8.07;;;;;;;30.02;58.42;94949.44;5105944;28;20625;-83
2023/07/07 10:45:29;;;;;;;9.55;7.80;;;;;;;30.18;58.91;94961.31;5110052;28;20165;-83
2023/07/07 10:47:55;;;;;;;8.88;7.85;;;;;;;30.26;61.20;94960.44;5102870;28;20581;-82
2023/07/07 10:50:25;;;;;;;9.63;7.90;;;;;;;30.32;60.71;94939.28;5105047;28;20170;-82
2023/07/07 10:53:03;;;;;;;10.05;7.72;;;;;;;30.52;59.83;94945.84;5104054;28;20182;-81
2023/07/07 10:55:35;;;;;;;12.85;8.07;;;;;;;30.53;58.77;94934.63;5109488;28;20230;-83
2023/07/07 10:58:15;;;;;;;9.45;7.88;;;;;;;30.52;58.49;94934.97;5100169;28;20173;-83
2023/07/07 11:01:25;;;;;;;9.50;6.95;;;;;;;30.35;57.83;94941.34;5102407;28;20233;-83
2023/07/07 11:04:18;;;;;;;11.02;7.90;;;;;;;30.14;54.73;94941.38;5099500;28;20181;-79
2023/07/07 11:06:59;;;;;;;12.48;8.65;;;;;;;29.94;58.91;94944.88;5101932;28;20241;-82
2023/07/07 11:09:51;;;;;;;8.55;6.88;;;;;;;29.73;57.85;94906.84;5097949;28;20201;-80
2023/07/07 11:12:58;;;;;;;12.90;7.75;;;;;;;29.94;59.55;94939.44;5103975;28;20634;-80
2023/07/07 11:15:40;;;;;;;9.25;7.28;;;;;;;30.04;60.70;94944.47;5080907;28;20185;-81
2023/07/07 11:18:25;;;;;;;12.23;7.75;;;;;;;29.95;60.23;94903.00;5115202;27;20239;-85
2023/07/07 11:21:05;;;;;;;11.30;6.88;;;;;;;30.13;56.25;94942.47;5107707;28;20226;-82
2023/07/07 11:23:51;;;;;;;11.85;6.95;;;;;;;29.71;58.26;94894.72;5102136;28;20174;-82
2023/07/07 11:26:32;;;;;;;13.05;7.93;;;;;;;29.91;57.75;94934.66;5103040;28;20188;-84
2023/07/07 11:29:08;;;;;;;11.48;8.32;;;;;;;30.02;59.84;94927.72;5093517;28;20187;-82
2023/07/07 11:31:55;;;;;;;10.85;7.40;;;;;;;29.92;55.52;94960.69;5107626;28;20172;-82
2023/07/07 11:34:39;;;;;;;7.13;4.65;;;;;;;28.41;50.67;94951.38;5100470;28;20634;-83